world map with OIAM marked

OIAM - Airport

This information may not be accurate or current and is not valid for navigation or flight planning. No warranty of fitness for any purpose is made or implied.

flag of Iran

Donate via PayPal

Additional information is available on the NEW Great Circle Mapper

Location
City:  Bandar Mahshahr, Khuzestan, Iran
Name:Mahshahr
ICAO / IATA:OIAM / MRX

Details
Type:Airport (Aerodrome, Airfield)
Latitude:30°33'22"N (30.556192)
Longitude:49°09'07"E (49.151879)
Datum:WGS 1984
Elevation:8 ft (2 m)
Runways:1
Longest:8874 × 148 ft (2705 × 45 m)

Time
Timezone:UTC+3:30 (DST+6:30)
Local Time:

Weather
METAR:OIAM  041400Z 32010KT CAVOK 18/04 Q1021
TAF:OIAM  (expired)

Related Locations
Nearby:
Farthest:GMR: 11861 mi / 19089 km
Mangareva [Totegegie], Gambier Islands, PF

Find:

   beyond  
but within

Other Information
Maps:
Sources:

  


 


Great Circle Mapper   Great Circle Mapper
Great Circle Mapper FAQ   Great Circle Mapper FAQ
  Karl's Home Page
KLSē   KLSē Home
   GC on Facebook
Airlines of the World   Airlines of the World
Donate via PayPal


Copyright © 2004-2019, Karl L. Swartz. All rights reserved.
All trademarks mentioned herein belong to their respective owners.

Please see credits for attribution and copyright information.

Karl Swartz <karl@kls2.com>
  Powered by FreeBSD
Valid HTML 4.01!
Labeled with ICRA
hCard Microformat
Geo Microformat